createdAt,value
2018-06-16T00:00:16.164Z,18.10
2018-06-16T00:00:49.151Z,18.10
2018-06-16T00:01:22.197Z,18.10
2018-06-16T00:03:24.840Z,18.10
2018-06-16T00:03:57.848Z,18.10
2018-06-16T00:04:30.872Z,18.10
2018-06-16T00:05:03.939Z,18.20
2018-06-16T00:05:36.946Z,18.20
2018-06-16T00:06:09.942Z,18.20
2018-06-16T00:06:42.996Z,18.10
2018-06-16T00:07:16.052Z,18.20
2018-06-16T00:07:49.064Z,18.20
2018-06-16T00:08:22.107Z,18.20
2018-06-16T00:08:55.120Z,18.20
2018-06-16T00:09:28.108Z,18.20
2018-06-16T00:10:01.164Z,18.20
2018-06-16T00:10:34.219Z,18.10
2018-06-16T00:15:57.953Z,18.20
2018-06-16T00:16:30.992Z,18.20
2018-06-16T00:17:03.994Z,18.20
2018-06-16T00:17:37.002Z,18.00
2018-06-16T00:18:10.010Z,18.00
2018-06-16T00:18:43.555Z,18.00
2018-06-16T00:19:16.560Z,18.00
2018-06-16T00:20:52.761Z,18.00
2018-06-16T00:21:25.751Z,18.00
2018-06-16T00:21:58.786Z,17.90
2018-06-16T00:22:31.794Z,17.90
2018-06-16T00:23:04.812Z,17.90
2018-06-16T00:23:37.815Z,17.90
2018-06-16T00:24:10.839Z,17.90
2018-06-16T00:24:43.834Z,17.80
2018-06-16T00:25:16.837Z,17.80
2018-06-16T00:25:50.529Z,17.90
2018-06-16T00:26:23.535Z,17.80
2018-06-16T00:26:56.553Z,17.80
2018-06-16T00:27:29.805Z,17.80
2018-06-16T00:28:02.829Z,17.70
2018-06-16T00:28:35.815Z,17.80
2018-06-16T00:29:08.795Z,17.80
2018-06-16T00:29:41.781Z,17.80
2018-06-16T00:32:56.179Z,17.80
2018-06-16T00:33:29.213Z,17.70
2018-06-16T00:34:02.210Z,17.70
2018-06-16T00:34:35.201Z,17.70
2018-06-16T00:35:08.222Z,17.60
2018-06-16T00:35:41.235Z,17.60
2018-06-16T00:36:14.229Z,17.70
2018-06-16T00:36:47.187Z,17.70
2018-06-16T00:37:21.029Z,17.60
2018-06-16T00:37:54.031Z,17.70
2018-06-16T00:38:27.107Z,17.70
2018-06-16T00:39:00.113Z,17.70
2018-06-16T00:39:33.109Z,17.70
2018-06-16T00:40:06.149Z,17.70
2018-06-16T00:40:39.149Z,17.70
2018-06-16T00:41:12.269Z,17.70
2018-06-16T00:41:45.243Z,17.60
2018-06-16T00:42:18.271Z,17.70
2018-06-16T00:42:51.335Z,17.70
2018-06-16T00:43:24.331Z,17.60
2018-06-16T00:43:57.329Z,17.70
2018-06-16T00:44:30.331Z,17.70
2018-06-16T00:45:03.537Z,17.70
2018-06-16T00:45:36.537Z,17.70
2018-06-16T00:46:09.572Z,17.60
2018-06-16T00:46:42.555Z,17.70
2018-06-16T00:47:15.555Z,17.60
2018-06-16T00:47:48.587Z,17.70
2018-06-16T00:48:21.600Z,17.60
2018-06-16T00:48:54.593Z,17.70
2018-06-16T00:49:27.583Z,17.60
2018-06-16T00:50:00.596Z,17.70
2018-06-16T00:50:33.560Z,17.60
2018-06-16T00:51:06.553Z,17.60
2018-06-16T00:51:39.531Z,17.60
2018-06-16T00:52:12.523Z,17.70
2018-06-16T00:52:45.495Z,17.60
2018-06-16T00:53:18.475Z,17.60
2018-06-16T00:53:51.503Z,17.60
2018-06-16T00:54:24.531Z,17.50
2018-06-16T00:54:57.575Z,17.60
2018-06-16T00:55:30.571Z,17.60
2018-06-16T00:56:03.613Z,17.50
2018-06-16T00:56:36.593Z,17.50
2018-06-16T00:57:26.908Z,17.50
2018-06-16T00:57:59.865Z,17.60
2018-06-16T00:58:32.886Z,17.60
2018-06-16T00:59:05.907Z,17.50
2018-06-16T00:59:38.997Z,17.60
2018-06-16T01:00:12.357Z,17.60
2018-06-16T01:00:45.371Z,17.50
2018-06-16T01:01:18.415Z,17.50
2018-06-16T01:01:51.433Z,17.50
2018-06-16T01:02:24.447Z,17.50
2018-06-16T01:02:57.437Z,17.50
2018-06-16T01:03:30.423Z,17.50
2018-06-16T01:04:03.514Z,17.50
2018-06-16T01:04:36.511Z,17.50
2018-06-16T01:05:10.085Z,17.40
2018-06-16T01:05:43.103Z,17.50
2018-06-16T01:06:16.099Z,17.50
2018-06-16T01:06:49.083Z,17.50
2018-06-16T01:07:22.099Z,17.40
2018-06-16T01:07:55.109Z,17.40
2018-06-16T01:08:28.094Z,17.40
2018-06-16T01:09:01.131Z,17.40
2018-06-16T01:09:34.149Z,17.40
2018-06-16T01:10:07.969Z,17.40
2018-06-16T01:10:40.937Z,17.50
2018-06-16T01:11:13.939Z,17.40
2018-06-16T01:11:47.022Z,17.50
2018-06-16T01:12:20.032Z,17.40
2018-06-16T01:12:53.053Z,17.40
2018-06-16T01:13:26.059Z,17.40
2018-06-16T01:13:59.037Z,17.40
2018-06-16T01:14:32.153Z,17.40
2018-06-16T01:15:05.643Z,17.40
2018-06-16T01:15:38.626Z,17.40
2018-06-16T01:16:11.624Z,17.40
2018-06-16T01:16:44.659Z,17.40
2018-06-16T01:17:17.697Z,17.40
2018-06-16T01:17:50.715Z,17.40
2018-06-16T01:18:23.713Z,17.50
2018-06-16T01:18:56.717Z,17.40
2018-06-16T01:19:29.727Z,17.40
2018-06-16T01:20:02.859Z,17.40
2018-06-16T01:20:35.859Z,17.40
2018-06-16T01:21:08.841Z,17.40
2018-06-16T01:21:41.844Z,17.40
2018-06-16T01:22:14.879Z,17.40
2018-06-16T01:22:47.913Z,17.50
2018-06-16T01:23:20.916Z,17.30
2018-06-16T01:23:53.940Z,17.30
2018-06-16T01:24:27.616Z,17.40
2018-06-16T01:25:00.629Z,17.40
2018-06-16T01:25:33.675Z,17.30
2018-06-16T01:26:06.666Z,17.30
2018-06-16T01:26:40.124Z,17.40
2018-06-16T01:27:13.192Z,17.40
2018-06-16T01:27:46.199Z,17.30
2018-06-16T01:28:19.653Z,17.40
2018-06-16T01:28:52.643Z,17.40
2018-06-16T01:29:25.601Z,17.30
2018-06-16T01:29:58.604Z,17.30
2018-06-16T01:30:31.609Z,17.20
2018-06-16T01:31:04.648Z,17.20
2018-06-16T01:31:37.675Z,17.20
2018-06-16T01:32:10.675Z,17.30
2018-06-16T01:32:43.679Z,17.30
2018-06-16T01:33:16.657Z,17.30
2018-06-16T01:33:49.647Z,17.30
2018-06-16T01:34:22.634Z,17.30
2018-06-16T01:34:55.620Z,17.30
2018-06-16T01:35:28.603Z,17.30
2018-06-16T01:36:01.596Z,17.40
2018-06-16T01:36:34.670Z,17.30
2018-06-16T01:37:07.646Z,17.20
2018-06-16T01:37:40.660Z,17.40
2018-06-16T01:38:13.622Z,17.30
2018-06-16T01:38:46.648Z,17.30
2018-06-16T01:39:19.664Z,17.20
2018-06-16T01:39:52.647Z,17.30
2018-06-16T01:40:25.817Z,17.20
2018-06-16T01:40:58.826Z,17.30
2018-06-16T01:41:31.820Z,17.30
2018-06-16T01:42:04.830Z,17.20
2018-06-16T01:42:37.878Z,17.30
2018-06-16T01:43:10.878Z,17.20
2018-06-16T01:43:43.831Z,17.20
2018-06-16T01:44:16.837Z,17.20
2018-06-16T01:44:49.816Z,17.20
2018-06-16T01:45:23.063Z,17.10
2018-06-16T01:45:56.691Z,17.20
2018-06-16T01:46:29.696Z,17.20
2018-06-16T01:47:02.668Z,17.20
2018-06-16T01:47:35.648Z,17.20
2018-06-16T01:48:08.656Z,17.20
2018-06-16T01:48:41.773Z,17.20
2018-06-16T01:49:14.787Z,17.20
2018-06-16T01:49:47.764Z,17.10
2018-06-16T01:50:20.804Z,17.20
2018-06-16T01:50:53.804Z,17.20
2018-06-16T01:51:26.788Z,17.10
2018-06-16T01:51:59.815Z,17.10
2018-06-16T01:52:32.799Z,17.20
2018-06-16T01:53:05.796Z,17.10
2018-06-16T01:53:38.820Z,17.10
2018-06-16T01:54:11.823Z,17.20
2018-06-16T01:54:44.822Z,17.10
2018-06-16T01:55:17.796Z,17.10
2018-06-16T01:55:50.856Z,17.20
2018-06-16T01:56:23.964Z,17.10
2018-06-16T01:56:57.032Z,17.00
2018-06-16T01:57:30.024Z,17.20
2018-06-16T01:58:02.988Z,17.10
2018-06-16T01:58:35.949Z,17.10
2018-06-16T01:59:08.903Z,17.10
2018-06-16T01:59:41.904Z,17.10
2018-06-16T02:00:14.930Z,17.10
2018-06-16T02:00:47.938Z,17.10
2018-06-16T02:01:20.974Z,17.10
2018-06-16T02:01:53.964Z,17.10
2018-06-16T02:02:26.930Z,17.10
2018-06-16T02:02:59.944Z,17.10
2018-06-16T02:03:33.054Z,17.10
2018-06-16T02:04:06.131Z,17.10
2018-06-16T02:04:39.124Z,17.00
2018-06-16T02:05:12.118Z,17.10
2018-06-16T02:05:45.154Z,17.00
2018-06-16T02:06:19.136Z,17.10
2018-06-16T02:06:52.108Z,17.00
2018-06-16T02:07:25.132Z,17.10
2018-06-16T02:07:58.169Z,17.10
2018-06-16T02:08:31.188Z,17.00
2018-06-16T02:09:09.410Z,17.00
2018-06-16T02:09:42.417Z,17.10
2018-06-16T02:10:15.438Z,17.10
2018-06-16T02:10:48.422Z,17.10
2018-06-16T02:11:21.410Z,17.00
2018-06-16T02:11:54.504Z,17.00
2018-06-16T02:12:27.476Z,17.10
2018-06-16T02:13:00.508Z,17.10
2018-06-16T02:13:33.522Z,17.10
2018-06-16T02:14:07.004Z,17.00
2018-06-16T02:14:39.988Z,17.00
2018-06-16T02:16:42.524Z,17.00
2018-06-16T02:17:15.768Z,17.00
2018-06-16T02:17:48.709Z,17.10
2018-06-16T02:18:21.707Z,17.00
2018-06-16T02:18:54.710Z,17.00
2018-06-16T02:19:27.714Z,17.00
2018-06-16T02:20:00.732Z,17.10
2018-06-16T02:20:33.722Z,17.00
2018-06-16T02:21:06.689Z,17.00
2018-06-16T02:21:39.696Z,17.00
2018-06-16T02:22:12.740Z,17.00
2018-06-16T02:22:45.764Z,17.10
2018-06-16T02:23:18.732Z,17.00
2018-06-16T02:23:51.708Z,16.90
2018-06-16T02:24:24.712Z,16.90
2018-06-16T02:24:57.709Z,16.90
2018-06-16T02:25:30.686Z,16.90
2018-06-16T02:26:03.741Z,16.90
2018-06-16T02:26:36.729Z,16.90
2018-06-16T02:27:09.696Z,17.00
2018-06-16T02:27:42.707Z,16.90
2018-06-16T02:28:15.684Z,17.00
2018-06-16T02:28:48.685Z,17.00
2018-06-16T02:29:21.700Z,17.00
2018-06-16T02:29:54.711Z,17.00
2018-06-16T02:30:27.706Z,16.90
2018-06-16T02:31:00.744Z,17.00
2018-06-16T02:31:33.733Z,16.90
2018-06-16T02:32:06.762Z,17.00
2018-06-16T02:32:39.756Z,17.00
2018-06-16T02:33:12.782Z,16.90
2018-06-16T02:33:45.794Z,17.00
2018-06-16T02:34:18.774Z,17.00
2018-06-16T02:34:52.216Z,16.90
2018-06-16T02:35:25.216Z,17.00
2018-06-16T02:35:58.203Z,16.90
2018-06-16T02:36:31.204Z,16.90
2018-06-16T02:37:04.206Z,16.90
2018-06-16T02:37:37.254Z,16.90
2018-06-16T02:38:10.291Z,16.90
2018-06-16T02:38:43.312Z,16.90
2018-06-16T02:39:16.326Z,16.90
2018-06-16T02:39:49.321Z,16.80
2018-06-16T02:40:22.308Z,16.90
2018-06-16T02:40:55.316Z,16.90
2018-06-16T02:41:28.337Z,16.90
2018-06-16T02:42:01.374Z,16.90
2018-06-16T02:42:34.356Z,16.90
2018-06-16T02:43:07.338Z,16.80
2018-06-16T02:43:40.309Z,16.90
2018-06-16T02:44:13.290Z,16.90
2018-06-16T02:44:46.249Z,16.80
2018-06-16T02:46:21.048Z,16.80
2018-06-16T02:46:54.335Z,16.80
2018-06-16T02:47:27.355Z,16.80
2018-06-16T02:48:00.344Z,16.80
2018-06-16T02:48:33.333Z,16.70
2018-06-16T02:49:06.302Z,16.90
2018-06-16T02:49:39.306Z,16.90
2018-06-16T02:50:12.360Z,16.90
2018-06-16T02:50:45.304Z,16.80
2018-06-16T02:51:18.300Z,16.80
2018-06-16T02:51:51.333Z,16.80
2018-06-16T02:52:24.329Z,16.80
2018-06-16T02:52:57.325Z,16.80
2018-06-16T02:53:30.323Z,16.80
2018-06-16T02:54:03.383Z,16.70
2018-06-16T02:54:36.430Z,16.80
2018-06-16T02:55:09.462Z,16.70
2018-06-16T02:55:42.436Z,16.80
2018-06-16T02:56:15.436Z,16.70
2018-06-16T02:56:48.453Z,16.70
2018-06-16T02:57:21.404Z,16.80
2018-06-16T02:57:54.371Z,16.70
2018-06-16T02:58:27.350Z,16.80
2018-06-16T02:59:00.344Z,16.80
2018-06-16T02:59:33.607Z,16.80
2018-06-16T03:00:06.632Z,16.90
2018-06-16T03:00:39.632Z,16.80
2018-06-16T03:01:12.629Z,16.80
2018-06-16T03:01:46.157Z,16.80
2018-06-16T03:02:19.180Z,16.80
2018-06-16T03:02:52.202Z,16.90
2018-06-16T03:03:25.887Z,16.80
2018-06-16T03:03:58.822Z,16.90
2018-06-16T03:04:31.856Z,16.90
2018-06-16T03:05:04.906Z,16.80
2018-06-16T03:05:37.896Z,16.80
2018-06-16T03:06:10.928Z,16.80
2018-06-16T03:06:43.965Z,16.80
2018-06-16T03:07:16.961Z,16.80
2018-06-16T03:07:50.037Z,16.80
2018-06-16T03:08:23.072Z,16.80
2018-06-16T03:08:56.076Z,16.70
2018-06-16T03:09:29.042Z,16.60
2018-06-16T03:10:02.052Z,16.60
2018-06-16T03:10:35.072Z,16.70
2018-06-16T03:11:08.074Z,16.80
2018-06-16T03:11:41.067Z,16.70
2018-06-16T03:12:14.060Z,16.70
2018-06-16T03:12:47.055Z,16.70
2018-06-16T03:13:20.625Z,16.70
2018-06-16T03:13:53.604Z,16.70
2018-06-16T03:14:26.617Z,16.70
2018-06-16T03:15:00.253Z,16.60
2018-06-16T03:15:33.280Z,16.70
2018-06-16T03:16:06.672Z,16.60
2018-06-16T03:16:39.634Z,16.70
2018-06-16T03:17:12.633Z,16.60
2018-06-16T03:17:45.620Z,16.60
2018-06-16T03:18:18.600Z,16.60
2018-06-16T03:18:51.633Z,16.60
2018-06-16T03:19:24.631Z,16.60
2018-06-16T03:19:57.667Z,16.60
2018-06-16T03:21:34.294Z,16.60
2018-06-16T03:22:07.410Z,16.70
2018-06-16T03:22:40.429Z,16.70
2018-06-16T03:23:13.488Z,16.80
2018-06-16T03:23:46.562Z,16.60
2018-06-16T03:24:19.645Z,16.60
2018-06-16T03:24:52.627Z,16.70
2018-06-16T03:25:25.641Z,16.70
2018-06-16T03:25:58.632Z,16.60
2018-06-16T03:26:31.626Z,16.60
2018-06-16T03:27:04.698Z,16.60
2018-06-16T03:27:37.818Z,16.80
2018-06-16T03:28:10.881Z,16.60
2018-06-16T03:28:43.895Z,16.70
2018-06-16T03:29:16.879Z,16.70
2018-06-16T03:29:49.877Z,16.70
2018-06-16T03:30:22.846Z,16.70
2018-06-16T03:30:55.838Z,16.70
2018-06-16T03:31:28.843Z,16.70
2018-06-16T03:32:01.841Z,16.70
2018-06-16T03:32:34.796Z,16.70
2018-06-16T03:33:07.802Z,16.70
2018-06-16T03:33:40.831Z,16.70
2018-06-16T03:34:13.815Z,16.70
2018-06-16T03:34:46.796Z,16.70
2018-06-16T03:35:19.797Z,16.70
2018-06-16T03:35:52.820Z,16.70
2018-06-16T03:36:25.886Z,16.80
2018-06-16T03:36:58.869Z,16.70
2018-06-16T03:37:31.834Z,16.70
2018-06-16T03:38:04.886Z,16.70
2018-06-16T03:38:37.894Z,16.80
2018-06-16T03:39:10.905Z,16.80
2018-06-16T03:39:43.905Z,16.70
2018-06-16T03:40:16.904Z,16.70
2018-06-16T03:40:49.918Z,16.80
2018-06-16T03:41:22.921Z,16.70
2018-06-16T03:41:55.913Z,16.70
2018-06-16T03:42:28.954Z,16.80
2018-06-16T03:43:01.967Z,16.80
2018-06-16T03:43:34.970Z,16.80
2018-06-16T03:44:07.982Z,16.80
2018-06-16T03:44:41.578Z,16.70
2018-06-16T03:45:14.583Z,16.80
2018-06-16T03:45:47.565Z,16.70
2018-06-16T03:46:20.613Z,16.70
2018-06-16T03:46:53.632Z,16.70
2018-06-16T03:47:26.636Z,16.80
2018-06-16T03:47:59.754Z,16.70
2018-06-16T03:48:32.728Z,16.70
2018-06-16T03:49:06.226Z,16.80
2018-06-16T03:49:39.250Z,16.80
2018-06-16T03:50:12.263Z,16.70
2018-06-16T03:50:45.276Z,16.70
2018-06-16T03:51:18.232Z,16.70
2018-06-16T03:51:51.192Z,16.70
2018-06-16T03:52:24.218Z,16.70
2018-06-16T03:52:57.185Z,16.80
2018-06-16T03:53:30.206Z,16.70
2018-06-16T03:54:03.235Z,16.80
2018-06-16T03:54:36.227Z,16.70
2018-06-16T03:55:09.230Z,16.70
2018-06-16T03:55:42.252Z,16.80
2018-06-16T03:56:15.282Z,16.70
2018-06-16T03:56:48.280Z,16.70
2018-06-16T03:57:21.310Z,16.80
2018-06-16T03:57:54.339Z,16.80
2018-06-16T03:58:27.350Z,16.80
2018-06-16T03:59:00.330Z,16.70
2018-06-16T03:59:33.340Z,16.80
2018-06-16T04:00:06.353Z,16.80
2018-06-16T04:00:39.353Z,16.80
2018-06-16T04:01:13.044Z,16.90
2018-06-16T04:01:46.044Z,16.80
2018-06-16T04:02:19.218Z,16.70
2018-06-16T04:02:52.236Z,16.80
2018-06-16T04:03:25.230Z,16.80
2018-06-16T04:03:58.212Z,16.90
2018-06-16T04:04:31.206Z,16.80
2018-06-16T04:05:04.512Z,16.80
2018-06-16T04:05:37.507Z,16.90
2018-06-16T04:06:10.544Z,16.80
2018-06-16T04:06:43.520Z,16.80
2018-06-16T04:07:16.507Z,16.80
2018-06-16T04:07:49.495Z,16.90
2018-06-16T04:08:22.524Z,16.90
2018-06-16T04:08:55.534Z,16.90
2018-06-16T04:09:28.528Z,16.80
2018-06-16T04:10:01.512Z,16.90
2018-06-16T04:10:34.512Z,16.80
2018-06-16T04:11:07.524Z,16.90
2018-06-16T04:11:40.537Z,16.90
2018-06-16T04:12:13.526Z,17.00
2018-06-16T04:12:46.530Z,16.90
2018-06-16T04:13:19.548Z,16.90
2018-06-16T04:13:52.623Z,16.90
2018-06-16T04:14:25.603Z,16.90
2018-06-16T04:14:58.606Z,16.90
2018-06-16T04:15:31.728Z,17.00
2018-06-16T04:16:04.822Z,16.90
2018-06-16T04:16:37.861Z,16.90
2018-06-16T04:17:15.453Z,17.00
2018-06-16T04:17:48.395Z,16.90
2018-06-16T04:18:21.383Z,17.00
2018-06-16T04:18:54.379Z,17.00
2018-06-16T04:19:27.398Z,17.00
2018-06-16T04:20:00.392Z,16.90
2018-06-16T04:20:33.380Z,17.00
2018-06-16T04:21:06.384Z,17.00
2018-06-16T04:21:39.404Z,17.00
2018-06-16T04:22:12.484Z,17.00
2018-06-16T04:22:45.535Z,17.00
2018-06-16T04:23:18.540Z,17.10
2018-06-16T04:23:51.508Z,17.10
2018-06-16T04:24:24.488Z,17.10
2018-06-16T04:24:57.584Z,17.10
2018-06-16T04:25:30.603Z,17.10
2018-06-16T04:26:03.642Z,17.10
2018-06-16T04:26:36.683Z,17.00
2018-06-16T04:27:09.692Z,17.20
2018-06-16T04:27:42.656Z,17.20
2018-06-16T04:28:15.618Z,17.20
2018-06-16T04:28:48.644Z,17.10
2018-06-16T04:29:21.645Z,17.20
2018-06-16T04:29:54.662Z,17.20
2018-06-16T04:30:27.677Z,17.30
2018-06-16T04:31:00.698Z,17.30
2018-06-16T04:31:33.687Z,17.30
2018-06-16T04:32:06.824Z,17.30
2018-06-16T04:32:39.832Z,17.40
2018-06-16T04:33:12.861Z,17.60
2018-06-16T04:33:45.947Z,17.50
2018-06-16T04:34:19.005Z,17.50
2018-06-16T04:34:52.035Z,17.60
2018-06-16T04:35:25.036Z,17.50
2018-06-16T04:35:58.054Z,17.60
2018-06-16T04:36:31.065Z,17.60
2018-06-16T04:37:05.450Z,17.70
2018-06-16T04:37:38.472Z,17.70
2018-06-16T04:38:12.182Z,17.70
2018-06-16T04:38:45.166Z,17.80
2018-06-16T04:39:18.225Z,17.90
2018-06-16T04:39:51.200Z,17.90
2018-06-16T04:40:24.224Z,17.90
2018-06-16T04:40:57.220Z,18.00
2018-06-16T04:41:30.214Z,18.00
2018-06-16T04:42:03.832Z,18.00
2018-06-16T04:42:36.853Z,18.00
2018-06-16T04:43:09.815Z,18.00
2018-06-16T04:43:42.823Z,18.10
2018-06-16T04:44:15.824Z,18.00
2018-06-16T04:44:49.484Z,18.00
2018-06-16T04:45:22.491Z,18.10
2018-06-16T04:45:55.506Z,18.20
2018-06-16T04:46:28.520Z,18.10
2018-06-16T04:47:01.500Z,18.10
2018-06-16T04:47:34.688Z,18.10
2018-06-16T04:48:07.701Z,18.20
2018-06-16T04:48:40.716Z,18.20
2018-06-16T04:49:13.702Z,18.20
2018-06-16T04:49:46.698Z,18.20
2018-06-16T04:50:19.716Z,18.20
2018-06-16T04:50:52.743Z,18.10
2018-06-16T04:51:25.732Z,18.20
2018-06-16T04:51:58.828Z,18.30
2018-06-16T04:52:31.832Z,18.20
2018-06-16T04:53:04.903Z,18.30
2018-06-16T04:53:37.864Z,18.30
2018-06-16T04:54:10.850Z,18.50
2018-06-16T04:54:43.838Z,18.40
2018-06-16T04:55:16.827Z,18.40
2018-06-16T04:55:49.984Z,18.40
2018-06-16T04:56:22.967Z,18.40
2018-06-16T04:56:55.952Z,18.40
2018-06-16T04:57:28.961Z,18.50
2018-06-16T04:58:02.020Z,18.50
2018-06-16T04:58:35.026Z,18.50
2018-06-16T04:59:08.002Z,18.60
2018-06-16T04:59:40.989Z,18.50
2018-06-16T05:00:14.130Z,18.60
2018-06-16T05:00:47.161Z,18.60
2018-06-16T05:01:20.163Z,18.60
2018-06-16T05:01:53.151Z,18.60
2018-06-16T05:02:26.150Z,18.60
2018-06-16T05:02:59.264Z,18.70
2018-06-16T05:03:32.433Z,18.70
2018-06-16T05:04:05.415Z,18.70
2018-06-16T05:04:38.400Z,18.70
2018-06-16T05:05:11.434Z,18.70
2018-06-16T05:05:44.532Z,18.80
2018-06-16T05:06:17.522Z,18.80
2018-06-16T05:06:50.517Z,18.90
2018-06-16T05:07:23.532Z,18.90
2018-06-16T05:07:56.499Z,18.80
2018-06-16T05:08:29.478Z,18.90
2018-06-16T05:09:03.896Z,18.80
2018-06-16T05:09:36.862Z,18.90
2018-06-16T05:10:09.816Z,18.90
2018-06-16T05:10:42.767Z,18.90
2018-06-16T05:11:15.750Z,18.90
2018-06-16T05:11:48.852Z,19.00
2018-06-16T05:12:21.873Z,18.90
2018-06-16T05:12:54.824Z,19.10
2018-06-16T05:13:27.805Z,19.00
2018-06-16T05:14:00.794Z,19.10
2018-06-16T05:14:33.790Z,19.10
2018-06-16T05:15:06.955Z,19.10
2018-06-16T05:15:39.945Z,19.10
2018-06-16T05:16:13.011Z,19.10
2018-06-16T05:16:46.033Z,19.30
2018-06-16T05:17:19.111Z,19.10
2018-06-16T05:17:52.137Z,19.20
2018-06-16T05:18:25.140Z,19.20
2018-06-16T05:18:58.116Z,19.20
2018-06-16T05:19:31.069Z,19.40
2018-06-16T05:20:04.169Z,19.30
2018-06-16T05:20:37.119Z,19.30
2018-06-16T05:21:10.115Z,19.30
2018-06-16T05:21:43.064Z,19.40
2018-06-16T05:24:10.597Z,19.40
2018-06-16T05:24:43.604Z,19.30
2018-06-16T05:25:16.596Z,19.40
2018-06-16T05:25:49.651Z,19.30
2018-06-16T05:26:22.584Z,19.30
2018-06-16T05:26:55.592Z,19.40
2018-06-16T05:27:28.575Z,19.40
2018-06-16T05:28:01.549Z,19.50
2018-06-16T05:28:34.525Z,19.40
2018-06-16T05:29:07.585Z,19.40
2018-06-16T05:29:40.615Z,19.50
2018-06-16T05:30:13.604Z,19.60
2018-06-16T05:30:46.596Z,19.50
2018-06-16T05:32:49.197Z,19.50
2018-06-16T05:33:22.193Z,19.50
2018-06-16T05:33:55.369Z,19.60
2018-06-16T05:34:28.377Z,19.70
2018-06-16T05:35:01.389Z,19.60
2018-06-16T05:35:34.417Z,19.70
2018-06-16T05:36:07.461Z,19.80
2018-06-16T05:36:40.477Z,19.80
2018-06-16T05:37:13.469Z,19.90
2018-06-16T05:37:46.493Z,19.80
2018-06-16T05:38:19.557Z,19.80
2018-06-16T05:38:52.571Z,19.80
2018-06-16T05:39:25.601Z,19.80
2018-06-16T05:39:58.599Z,19.70
2018-06-16T05:40:31.605Z,19.80
2018-06-16T05:41:04.599Z,19.80
2018-06-16T05:41:37.945Z,19.80
2018-06-16T05:42:10.961Z,19.70
2018-06-16T05:42:43.940Z,19.70
2018-06-16T05:43:16.925Z,19.80
2018-06-16T05:43:49.937Z,19.80
2018-06-16T05:44:22.969Z,19.80
2018-06-16T05:44:56.891Z,19.80
2018-06-16T05:45:29.915Z,19.90
2018-06-16T05:46:03.120Z,19.80
2018-06-16T05:46:36.083Z,19.90
2018-06-16T05:47:09.081Z,20.00
2018-06-16T05:47:42.093Z,19.90
2018-06-16T05:48:15.044Z,19.80
2018-06-16T05:48:48.038Z,19.80
2018-06-16T05:49:21.053Z,19.90
2018-06-16T05:49:54.131Z,19.90
2018-06-16T05:50:27.145Z,19.90
2018-06-16T05:51:00.175Z,20.10
2018-06-16T05:51:33.149Z,20.10
2018-06-16T05:52:06.205Z,20.00
2018-06-16T05:52:39.203Z,20.00
2018-06-16T05:53:12.215Z,20.10
2018-06-16T05:53:45.215Z,20.10
2018-06-16T05:54:18.253Z,20.00
2018-06-16T05:54:51.287Z,20.00
2018-06-16T05:55:24.267Z,20.10
2018-06-16T05:55:57.283Z,20.20
2018-06-16T05:56:30.355Z,19.90
2018-06-16T05:57:03.395Z,20.00
2018-06-16T05:57:37.191Z,20.00
2018-06-16T05:58:10.175Z,20.10
2018-06-16T05:58:43.171Z,20.00
2018-06-16T05:59:16.235Z,20.00
2018-06-16T05:59:49.345Z,19.90
2018-06-16T06:00:22.346Z,19.90
2018-06-16T06:00:55.335Z,20.00
2018-06-16T06:01:28.345Z,20.00
2018-06-16T06:02:01.337Z,20.10
2018-06-16T06:02:34.327Z,20.20
2018-06-16T06:03:07.314Z,20.10
2018-06-16T06:03:40.307Z,20.20
2018-06-16T06:04:13.315Z,20.20
2018-06-16T06:04:46.345Z,20.20
2018-06-16T06:05:19.369Z,20.20
2018-06-16T06:05:52.383Z,20.30
2018-06-16T06:06:25.368Z,20.30
2018-06-16T06:06:58.391Z,20.40
2018-06-16T06:07:31.387Z,20.40
2018-06-16T06:08:04.459Z,20.40
2018-06-16T06:08:37.467Z,20.50
2018-06-16T06:09:10.628Z,20.70
2018-06-16T06:09:43.661Z,20.70
2018-06-16T06:10:16.731Z,20.70
2018-06-16T06:10:49.620Z,20.80
2018-06-16T06:11:22.655Z,20.70
2018-06-16T06:11:55.655Z,20.70
2018-06-16T06:12:29.691Z,20.80
2018-06-16T06:13:02.701Z,20.70
2018-06-16T06:13:35.703Z,20.70
2018-06-16T06:14:09.373Z,20.70
2018-06-16T06:14:42.540Z,20.80
2018-06-16T06:15:15.563Z,20.80
2018-06-16T06:15:48.608Z,20.80
2018-06-16T06:16:21.605Z,20.90
2018-06-16T06:16:55.535Z,20.90
2018-06-16T06:17:28.575Z,20.90
2018-06-16T06:18:01.638Z,20.80
2018-06-16T06:18:34.677Z,20.90
2018-06-16T06:19:07.699Z,20.90
2018-06-16T06:19:40.703Z,20.80
2018-06-16T06:20:13.689Z,20.90
2018-06-16T06:20:46.703Z,20.80
2018-06-16T06:21:19.680Z,20.90
2018-06-16T06:21:52.709Z,20.80
2018-06-16T06:22:25.716Z,20.90
2018-06-16T06:22:58.699Z,20.70
2018-06-16T06:23:31.744Z,20.70
2018-06-16T06:24:04.877Z,20.70
2018-06-16T06:24:37.904Z,20.60
2018-06-16T06:25:10.882Z,20.60
2018-06-16T06:25:43.883Z,20.60
2018-06-16T06:26:16.891Z,20.60
2018-06-16T06:26:49.895Z,20.60
2018-06-16T06:27:22.866Z,20.60
2018-06-16T06:27:56.282Z,20.50
2018-06-16T06:28:29.593Z,20.60
2018-06-16T06:29:02.592Z,20.60
2018-06-16T06:29:35.603Z,20.60
2018-06-16T06:30:08.609Z,20.60
2018-06-16T06:30:41.621Z,20.70
2018-06-16T06:31:14.615Z,20.70
2018-06-16T06:31:47.801Z,20.70
2018-06-16T06:32:20.777Z,20.70
2018-06-16T06:32:53.831Z,20.80
2018-06-16T06:33:26.801Z,20.80
2018-06-16T06:33:59.797Z,20.60
2018-06-16T06:34:32.833Z,20.60
2018-06-16T06:35:05.895Z,20.70
2018-06-16T06:35:38.899Z,20.60
2018-06-16T06:36:12.445Z,20.60
2018-06-16T06:36:47.113Z,20.60
2018-06-16T06:37:20.138Z,20.60
2018-06-16T06:37:53.133Z,20.80
2018-06-16T06:38:26.133Z,20.70
2018-06-16T06:38:59.138Z,20.70
2018-06-16T06:39:32.175Z,20.90
2018-06-16T06:40:05.463Z,20.90
2018-06-16T06:40:38.460Z,20.90
2018-06-16T06:41:12.234Z,20.90
2018-06-16T06:41:45.268Z,21.00
2018-06-16T06:42:18.262Z,21.10
2018-06-16T06:42:51.323Z,21.10
2018-06-16T06:43:24.418Z,21.20
2018-06-16T06:43:57.420Z,21.30
2018-06-16T06:44:30.452Z,21.30
2018-06-16T06:45:03.585Z,21.20
2018-06-16T06:45:36.604Z,21.40
2018-06-16T06:46:09.973Z,21.40
2018-06-16T06:46:42.983Z,21.40
2018-06-16T06:47:16.052Z,21.50
2018-06-16T06:47:49.062Z,21.50
2018-06-16T06:48:22.127Z,21.50
2018-06-16T06:48:55.179Z,21.60
2018-06-16T06:49:28.214Z,21.60
2018-06-16T06:50:01.218Z,21.70
2018-06-16T06:50:34.259Z,21.60
2018-06-16T06:51:07.313Z,21.60
2018-06-16T06:51:40.381Z,21.70
2018-06-16T06:52:13.367Z,21.60
2018-06-16T06:52:46.367Z,21.50
2018-06-16T06:53:19.389Z,21.80
2018-06-16T06:53:52.363Z,21.80
2018-06-16T06:54:25.387Z,21.80
2018-06-16T06:54:58.423Z,21.90
2018-06-16T06:55:31.489Z,21.90
2018-06-16T06:56:04.532Z,21.80
2018-06-16T06:56:37.539Z,21.90
2018-06-16T06:57:10.568Z,21.80
2018-06-16T06:57:43.567Z,21.90
2018-06-16T06:58:16.741Z,21.80
2018-06-16T06:58:49.777Z,21.80
2018-06-16T06:59:22.768Z,21.80
2018-06-16T06:59:55.799Z,21.70
2018-06-16T07:00:28.903Z,21.80
2018-06-16T07:01:01.900Z,21.80
2018-06-16T07:01:34.905Z,21.90
2018-06-16T07:02:07.905Z,21.90
2018-06-16T07:02:40.929Z,22.00
2018-06-16T07:03:13.929Z,22.00
2018-06-16T07:03:47.000Z,22.10
2018-06-16T07:04:20.034Z,22.10
2018-06-16T07:04:53.079Z,22.10
2018-06-16T07:05:26.100Z,22.00
2018-06-16T07:05:59.143Z,22.00
2018-06-16T07:06:32.146Z,22.00
2018-06-16T07:07:05.319Z,22.10
2018-06-16T07:07:38.344Z,22.20
2018-06-16T07:08:11.356Z,22.00
2018-06-16T07:08:44.382Z,22.10
2018-06-16T07:09:18.074Z,22.10
2018-06-16T07:09:51.081Z,22.20
2018-06-16T07:10:24.085Z,22.20
2018-06-16T07:10:57.102Z,22.30
2018-06-16T07:11:30.105Z,22.20
2018-06-16T07:12:03.140Z,22.30
2018-06-16T07:12:36.128Z,22.30
2018-06-16T07:13:09.148Z,22.40
2018-06-16T07:13:42.193Z,22.40
2018-06-16T07:14:15.211Z,22.40
2018-06-16T07:14:48.518Z,22.40
2018-06-16T07:15:21.546Z,22.50
2018-06-16T07:15:54.658Z,22.40
2018-06-16T07:16:27.710Z,22.30
2018-06-16T07:17:00.688Z,22.20
2018-06-16T07:17:33.719Z,22.30
2018-06-16T07:18:06.830Z,22.30
2018-06-16T07:20:10.018Z,22.30
2018-06-16T07:20:43.043Z,22.30
2018-06-16T07:21:16.071Z,22.80
2018-06-16T07:21:49.073Z,22.90
2018-06-16T07:22:22.084Z,22.90
2018-06-16T07:22:55.088Z,22.90
2018-06-16T07:23:28.127Z,22.90
2018-06-16T07:24:01.162Z,23.00
2018-06-16T07:24:34.154Z,22.90